Terminal Aerodrome Forecast
Issued by NWS

Current Version | Previous Version | Graphics & Text | Print | Product List | Glossary On
Versions: 1 2 3 4 5 6 7 8 9 10 11 12 13 14 15 16 17 18 19 20 21 22 23
078
FTUS41 KPBZ 261508 AAA
TAFMGW
TAF AMD
KMGW 261508Z 2615/2712 25008KT P6SM BKN020
     FM261800 25010KT P6SM BKN035
     FM270200 00000KT P6SM BKN035
     FM271100 18004KT P6SM VCTS BKN030CB=

USA.gov is the U.S. government's official web portal to all federal, state and local government web resources and services.